Time;durP1;ratioP1;P1;durP2;ratioP2;P2;SDS_P1;SDS_P2;PMS_P1;PMS_P2;Temp;Humidity;BMP_temperature;BMP_pressure;BME280_temperature;BME280_humidity;BME280_pressure;Samples;Min_cycle;Max_cycle;Signal;HPM_P1;HPM_P2
2021/08/17 13:08:48;;;;;;;2.65;1.83;;;21.20;99.90;;;;;;6186814;22;1217644;-60
2021/08/17 13:14:36;;;;;;;3.40;1.60;;;21.00;99.90;;;;;;6293611;22;20207;-53
2021/08/17 13:17:02;;;;;;;3.05;2.10;;;20.90;99.90;;;;;;6314217;22;20160;-51
2021/08/17 13:19:28;;;;;;;2.83;1.85;;;20.40;99.90;;;;;;6312933;22;20156;-49
2021/08/17 13:21:54;;;;;;;2.33;2.05;;;20.10;99.90;;;;;;6309878;22;20154;-53
2021/08/17 13:24:21;;;;;;;3.63;2.25;;;19.90;99.90;;;;;;6294641;22;20202;-53
2021/08/17 13:26:46;;;;;;;3.95;2.25;;;19.70;99.90;;;;;;6281423;22;20632;-51
2021/08/17 13:29:12;;;;;;;2.92;2.10;;;19.40;99.90;;;;;;6280968;22;20149;-51
2021/08/17 13:31:38;;;;;;;3.30;2.30;;;19.10;99.90;;;;;;6280673;22;20159;-52
2021/08/17 13:34:04;;;;;;;2.58;1.80;;;19.20;99.90;;;;;;6275121;22;20223;-56
2021/08/17 13:36:29;;;;;;;4.10;2.05;;;19.20;99.90;;;;;;6277433;22;20771;-52
2021/08/17 13:38:55;;;;;;;5.10;2.40;;;19.80;99.90;;;;;;6277784;22;20648;-52
2021/08/17 13:41:20;;;;;;;3.22;2.03;;;19.80;99.90;;;;;;6273229;22;20150;-58
2021/08/17 13:43:46;;;;;;;2.17;1.92;;;19.30;99.90;;;;;;6276436;22;20181;-50
2021/08/17 13:46:12;;;;;;;4.15;2.10;;;;;;;;;;6280770;22;20159;-55
2021/08/17 13:48:38;;;;;;;2.53;1.88;;;19.70;99.90;;;;;;6270886;22;20155;-57
2021/08/17 13:51:03;;;;;;;3.35;1.73;;;21.20;99.90;;;;;;6278316;22;20188;-53
2021/08/17 13:53:29;;;;;;;3.45;2.20;;;19.70;99.90;;;;;;6273207;22;20239;-57
2021/08/17 13:55:55;;;;;;;2.78;2.00;;;19.60;99.90;;;;;;6279897;22;20149;-51
2021/08/17 13:58:20;;;;;;;4.70;2.30;;;19.90;99.90;;;;;;6280543;22;20171;-52
2021/08/17 14:00:47;;;;;;;4.38;2.30;;;20.30;99.90;;;;;;6281211;22;20142;-53
2021/08/17 14:03:12;;;;;;;3.13;2.00;;;20.40;99.90;;;;;;6281239;22;20236;-55
2021/08/17 14:05:38;;;;;;;3.10;1.80;;;20.60;99.90;;;;;;6277111;22;20185;-53
2021/08/17 14:08:04;;;;;;;4.00;2.40;;;20.40;99.90;;;;;;6274774;22;20733;-52
2021/08/17 14:10:29;;;;;;;2.75;1.98;;;20.70;99.90;;;;;;6274047;22;20149;-53
2021/08/17 14:12:55;;;;;;;2.20;2.00;;;20.40;99.90;;;;;;6270421;22;20145;-50
2021/08/17 14:15:20;;;;;;;3.08;2.20;;;20.10;99.90;;;;;;6274183;22;20241;-49
2021/08/17 14:17:46;;;;;;;3.08;1.95;;;19.80;99.90;;;;;;6271183;22;20151;-54
2021/08/17 14:20:12;;;;;;;2.83;1.90;;;19.90;99.90;;;;;;6270406;22;20216;-55
2021/08/17 14:22:37;;;;;;;3.42;2.22;;;20.00;99.90;;;;;;6274200;22;20154;-55
2021/08/17 14:25:04;;;;;;;3.70;2.20;;;20.20;99.90;;;;;;6270812;22;20265;-52
2021/08/17 14:27:30;;;;;;;2.88;2.03;;;20.30;99.90;;;;;;6273932;22;20151;-52
2021/08/17 14:29:56;;;;;;;2.47;1.88;;;20.30;99.90;;;;;;6274735;22;20554;-56
2021/08/17 14:32:22;;;;;;;3.22;2.10;;;20.70;99.90;;;;;;6268754;22;20162;-52
2021/08/17 14:34:47;;;;;;;2.75;2.00;;;19.90;99.90;;;;;;6266460;22;20851;-52
2021/08/17 14:37:13;;;;;;;5.17;2.33;;;19.60;99.90;;;;;;6270925;22;20480;-50
2021/08/17 14:39:40;;;;;;;2.33;2.00;;;19.40;99.90;;;;;;6272458;22;20213;-51
2021/08/17 14:42:06;;;;;;;2.93;2.00;;;19.30;99.90;;;;;;6272589;22;20516;-53
2021/08/17 14:44:32;;;;;;;3.10;1.97;;;19.30;99.90;;;;;;6273111;22;20174;-54
2021/08/17 14:47:00;;;;;;;2.67;2.10;;;19.30;99.90;;;;;;6273856;22;20622;-53
2021/08/17 14:49:25;;;;;;;2.50;1.87;;;19.30;99.90;;;;;;6274328;22;20150;-51
2021/08/17 14:51:51;;;;;;;2.20;1.80;;;19.30;99.90;;;;;;6274134;22;20164;-52
2021/08/17 14:54:17;;;;;;;2.30;1.87;;;19.30;99.90;;;;;;6273799;22;20636;-53
2021/08/17 14:56:42;;;;;;;2.47;2.00;;;19.40;99.90;;;;;;6274704;22;20146;-53
2021/08/17 14:59:08;;;;;;;3.03;1.87;;;19.40;99.90;;;;;;6272759;22;20507;-53
2021/08/17 15:01:33;;;;;;;1.80;1.70;;;19.30;99.90;;;;;;6273156;22;20548;-52
2021/08/17 15:03:59;;;;;;;2.50;1.77;;;19.30;99.90;;;;;;6267102;22;20174;-50
2021/08/17 15:06:25;;;;;;;2.23;2.00;;;19.20;99.90;;;;;;6273631;22;20153;-52
2021/08/17 15:08:50;;;;;;;3.47;2.30;;;19.20;99.90;;;;;;6274528;22;20142;-51
2021/08/17 15:11:16;;;;;;;5.13;2.20;;;19.20;99.90;;;;;;6270500;22;20165;-52
2021/08/17 15:13:42;;;;;;;2.23;2.00;;;19.40;99.90;;;;;;6267000;22;20220;-52
2021/08/17 15:16:07;;;;;;;2.50;1.90;;;19.60;99.90;;;;;;6268491;22;20220;-63
2021/08/17 15:18:33;;;;;;;2.07;1.70;;;19.50;99.90;;;;;;6272432;22;20181;-62
2021/08/17 15:23:34;;;;;;;2.30;1.87;;;19.00;99.90;;;;;;6283685;22;20208;-60
2021/08/17 15:26:00;;;;;;;2.57;2.20;;;18.90;99.90;;;;;;6301614;22;20233;-62
2021/08/17 15:28:26;;;;;;;2.17;1.90;;;18.70;99.90;;;;;;6304787;22;20181;-63
2021/08/17 15:30:53;;;;;;;3.23;2.10;;;18.70;99.90;;;;;;6302632;22;20614;-63
2021/08/17 15:33:20;;;;;;;2.10;1.87;;;18.80;99.90;;;;;;6291117;22;20658;-63
2021/08/17 15:35:45;;;;;;;2.97;2.23;;;18.80;99.90;;;;;;6273240;22;20138;-58
2021/08/17 15:38:11;;;;;;;2.40;2.10;;;18.50;99.90;;;;;;6273133;22;20241;-63
2021/08/17 15:40:37;;;;;;;2.30;2.10;;;18.70;99.90;;;;;;6273345;22;20150;-62
2021/08/17 15:43:03;;;;;;;2.40;2.20;;;18.70;99.90;;;;;;6272339;22;20174;-63
2021/08/17 15:45:29;;;;;;;2.50;2.00;;;18.60;99.90;;;;;;6272312;22;20150;-56
2021/08/17 15:50:31;;;;;;;2.93;2.07;;;18.70;99.90;;;;;;6292402;22;20324;-62
2021/08/17 15:52:57;;;;;;;3.73;2.47;;;18.90;99.90;;;;;;6305897;22;20222;-61
2021/08/17 15:55:23;;;;;;;2.63;2.17;;;19.40;99.90;;;;;;6300081;22;20276;-61
2021/08/17 15:57:49;;;;;;;3.57;2.53;;;19.10;99.90;;;;;;6304083;22;20141;-60
2021/08/17 16:00:19;;;;;;;2.33;2.10;;;19.10;99.90;;;;;;6280474;22;20177;-62
2021/08/17 16:02:45;;;;;;;2.93;2.27;;;19.30;99.90;;;;;;6273284;22;20619;-55
2021/08/17 16:05:16;;;;;;;2.23;2.03;;;19.40;99.90;;;;;;6273590;22;20139;-60
2021/08/17 16:07:45;;;;;;;2.20;2.00;;;19.40;99.90;;;;;;6273916;22;20156;-62
2021/08/17 16:10:12;;;;;;;2.60;2.10;;;19.40;99.90;;;;;;6273474;22;20627;-63
2021/08/17 16:12:42;;;;;;;2.50;2.30;;;19.60;99.90;;;;;;6273527;22;20728;-62
2021/08/17 16:15:11;;;;;;;2.77;2.40;;;19.60;99.90;;;;;;6273459;22;20215;-61
2021/08/17 16:17:37;;;;;;;2.80;2.13;;;19.30;99.90;;;;;;6273899;22;20245;-62
2021/08/17 16:20:03;;;;;;;3.13;1.77;;;19.10;99.90;;;;;;6273297;22;20197;-62
2021/08/17 16:22:29;;;;;;;2.40;2.20;;;19.30;99.90;;;;;;6273469;22;20174;-62
2021/08/17 16:24:54;;;;;;;2.87;2.13;;;19.30;99.90;;;;;;6273694;22;20169;-62
2021/08/17 16:27:21;;;;;;;7.50;2.63;;;19.30;99.90;;;;;;6273558;22;20589;-62
2021/08/17 16:29:47;;;;;;;3.00;2.50;;;19.10;99.90;;;;;;6272904;22;20173;-62
2021/08/17 16:32:13;;;;;;;2.57;2.37;;;19.00;99.90;;;;;;6273590;22;20603;-62
2021/08/17 16:34:38;;;;;;;2.60;2.17;;;18.80;99.90;;;;;;6273550;22;20507;-62
2021/08/17 16:37:04;;;;;;;2.80;2.60;;;18.80;99.90;;;;;;6273245;22;20158;-62
2021/08/17 16:39:30;;;;;;;5.87;2.60;;;18.80;99.90;;;;;;6273337;22;20176;-62
2021/08/17 16:41:56;;;;;;;4.07;2.40;;;18.70;99.90;;;;;;6273353;22;20146;-62
2021/08/17 16:44:21;;;;;;;2.43;2.23;;;18.80;99.90;;;;;;6273109;22;20150;-62
2021/08/17 16:46:47;;;;;;;2.70;2.30;;;18.90;99.90;;;;;;6271525;22;20162;-63
2021/08/17 16:49:16;;;;;;;2.90;2.30;;;19.10;99.90;;;;;;6271826;22;20167;-63
2021/08/17 16:51:42;;;;;;;2.53;2.20;;;19.10;99.90;;;;;;6273153;22;20173;-62
2021/08/17 16:54:07;;;;;;;2.53;2.00;;;19.20;99.90;;;;;;6273348;22;20174;-62
2021/08/17 16:56:33;;;;;;;2.63;2.30;;;19.30;99.90;;;;;;6258083;22;20592;-58
2021/08/17 16:58:58;;;;;;;2.27;2.03;;;19.10;99.90;;;;;;6271580;22;20169;-63
2021/08/17 17:01:24;;;;;;;4.47;2.43;;;19.20;99.90;;;;;;6272826;22;20592;-62
2021/08/17 17:03:49;;;;;;;2.47;2.20;;;19.20;99.90;;;;;;6273199;22;20150;-63
2021/08/17 17:06:16;;;;;;;3.73;2.90;;;19.20;99.90;;;;;;6273030;22;20159;-62
2021/08/17 17:08:42;;;;;;;3.00;2.53;;;19.10;99.90;;;;;;6273144;22;20204;-61
2021/08/17 17:11:09;;;;;;;2.80;2.50;;;19.10;99.90;;;;;;6273257;22;20154;-62
2021/08/17 17:13:35;;;;;;;4.80;2.57;;;19.00;99.90;;;;;;6273166;22;20658;-62
2021/08/17 17:16:01;;;;;;;2.63;2.40;;;18.90;99.90;;;;;;6273362;22;20150;-62
2021/08/17 17:18:27;;;;;;;2.80;2.10;;;18.80;99.90;;;;;;6272803;22;20199;-58
2021/08/17 17:20:52;;;;;;;2.37;2.07;;;18.90;99.90;;;;;;6273499;22;20158;-62
2021/08/17 17:23:18;;;;;;;3.47;2.33;;;18.90;99.90;;;;;;6273256;22;20153;-62
2021/08/17 17:25:43;;;;;;;3.53;2.67;;;19.00;99.90;;;;;;6272865;22;20492;-62
2021/08/17 17:28:09;;;;;;;4.97;2.77;;;19.00;99.90;;;;;;6273132;22;20211;-62
2021/08/17 17:30:36;;;;;;;3.03;2.43;;;19.00;99.90;;;;;;6272357;22;20170;-62
2021/08/17 17:33:04;;;;;;;3.63;2.60;;;19.00;99.90;;;;;;6273396;22;20225;-63
2021/08/17 17:35:33;;;;;;;2.73;2.43;;;18.80;99.90;;;;;;6273128;22;20177;-63
2021/08/17 17:37:59;;;;;;;3.00;2.33;;;18.80;99.90;;;;;;6272908;22;20460;-63
2021/08/17 17:40:24;;;;;;;3.37;2.40;;;18.80;99.90;;;;;;6271732;22;20178;-63
2021/08/17 17:42:50;;;;;;;2.37;2.17;;;18.70;99.90;;;;;;6273727;22;20154;-63
2021/08/17 17:45:15;;;;;;;3.20;2.43;;;18.70;99.90;;;;;;6275002;22;20465;-61
2021/08/17 17:47:41;;;;;;;2.73;2.50;;;18.60;99.90;;;;;;6271701;22;20146;-61
2021/08/17 17:50:07;;;;;;;3.27;2.67;;;18.40;99.90;;;;;;6274000;22;20176;-61
2021/08/17 17:52:33;;;;;;;4.27;2.70;;;18.40;99.90;;;;;;6274748;22;20240;-62
2021/08/17 17:54:58;;;;;;;2.97;2.70;;;18.30;99.90;;;;;;6274399;22;20595;-64
2021/08/17 17:57:24;;;;;;;4.07;2.60;;;18.30;99.90;;;;;;6275172;22;20460;-64
2021/08/17 17:59:50;;;;;;;3.87;2.80;;;18.20;99.90;;;;;;6273501;22;20169;-64
2021/08/17 18:02:15;;;;;;;3.70;2.60;;;18.10;99.90;;;;;;6274231;22;20152;-63
2021/08/17 18:04:41;;;;;;;2.87;2.47;;;18.10;99.90;;;;;;6273446;22;20156;-62
2021/08/17 18:07:08;;;;;;;2.77;2.57;;;18.10;99.90;;;;;;6273844;22;20146;-62
2021/08/17 18:09:34;;;;;;;2.97;2.67;;;18.10;99.90;;;;;;6274334;22;20170;-63
2021/08/17 18:12:00;;;;;;;2.93;2.70;;;18.10;99.90;;;;;;6274714;22;20157;-62
2021/08/17 18:14:26;;;;;;;3.57;2.67;;;18.00;99.90;;;;;;6274706;22;20190;-62
2021/08/17 18:16:51;;;;;;;2.93;2.63;;;18.00;99.90;;;;;;6274695;22;20162;-62
2021/08/17 18:19:17;;;;;;;3.80;2.50;;;17.90;99.90;;;;;;6274497;22;20633;-62
2021/08/17 18:21:44;;;;;;;3.13;2.73;;;17.90;99.90;;;;;;6274632;22;20147;-62
2021/08/17 18:24:10;;;;;;;2.93;2.47;;;18.40;99.90;;;;;;6274717;22;20159;-63
2021/08/17 18:26:35;;;;;;;3.63;2.70;;;17.80;99.90;;;;;;6274567;22;20150;-62
2021/08/17 18:29:06;;;;;;;3.53;2.53;;;17.80;99.90;;;;;;6274275;22;20229;-61
2021/08/17 18:31:33;;;;;;;2.90;2.60;;;17.80;99.90;;;;;;6272701;22;20163;-63
2021/08/17 18:34:00;;;;;;;3.03;2.73;;;17.80;99.90;;;;;;6274272;22;20184;-63
2021/08/17 18:36:26;;;;;;;3.67;2.83;;;17.80;99.90;;;;;;6273915;22;20529;-62
2021/08/17 18:38:51;;;;;;;5.43;3.10;;;17.70;99.90;;;;;;6273815;22;20167;-62
2021/08/17 18:41:17;;;;;;;4.80;3.50;;;17.60;99.90;;;;;;6274240;22;20548;-62
2021/08/17 18:43:44;;;;;;;2.90;2.57;;;17.70;99.90;;;;;;6273791;22;20605;-62
2021/08/17 18:46:09;;;;;;;3.37;2.40;;;17.70;99.90;;;;;;6274105;22;20148;-63
2021/08/17 18:48:36;;;;;;;3.33;2.83;;;17.70;99.90;;;;;;6273663;22;20157;-63
2021/08/17 18:51:05;;;;;;;3.03;2.67;;;17.70;99.90;;;;;;6274141;22;20152;-62
2021/08/17 18:53:30;;;;;;;3.60;2.70;;;17.60;99.90;;;;;;6245686;22;20151;-63
2021/08/17 18:55:56;;;;;;;3.27;2.80;;;17.60;99.90;;;;;;6273724;22;20197;-62
2021/08/17 18:58:22;;;;;;;3.30;2.70;;;17.60;99.90;;;;;;6274169;22;20617;-62
2021/08/17 19:00:49;;;;;;;4.27;3.20;;;17.70;99.90;;;;;;6273795;22;20164;-63
2021/08/17 19:03:15;;;;;;;3.50;2.70;;;17.60;99.90;;;;;;6274541;22;20154;-63
2021/08/17 19:05:41;;;;;;;3.80;3.00;;;17.50;99.90;;;;;;6274077;22;20667;-62
2021/08/17 19:08:07;;;;;;;3.93;2.97;;;17.50;99.90;;;;;;6274352;22;20488;-60
2021/08/17 19:10:33;;;;;;;4.23;3.13;;;17.40;99.90;;;;;;6273546;22;20170;-63
2021/08/17 19:12:59;;;;;;;4.40;2.70;;;17.40;99.90;;;;;;6274199;22;20154;-63
2021/08/17 19:15:24;;;;;;;4.13;2.97;;;17.40;99.90;;;;;;6274077;22;20560;-62
2021/08/17 19:17:50;;;;;;;4.50;3.10;;;17.30;99.90;;;;;;6274149;22;20522;-62
2021/08/17 19:20:16;;;;;;;4.63;2.87;;;17.30;99.90;;;;;;6273677;22;20496;-63
2021/08/17 19:22:44;;;;;;;3.90;2.80;;;17.30;99.90;;;;;;6273522;22;20178;-63
2021/08/17 19:25:10;;;;;;;3.50;2.70;;;17.30;99.90;;;;;;6274463;22;20150;-62
2021/08/17 19:27:35;;;;;;;4.27;3.00;;;17.20;99.90;;;;;;6273418;22;20614;-62
2021/08/17 19:30:01;;;;;;;4.30;2.63;;;17.20;99.90;;;;;;6273292;22;20220;-63
2021/08/17 19:32:27;;;;;;;3.87;2.93;;;17.10;99.90;;;;;;6273800;22;20233;-63
2021/08/17 19:34:52;;;;;;;3.97;2.93;;;17.10;99.90;;;;;;6272203;22;20178;-63
2021/08/17 19:37:20;;;;;;;4.27;2.67;;;17.20;99.90;;;;;;6273613;22;20153;-61
2021/08/17 19:39:46;;;;;;;4.37;3.00;;;17.10;99.90;;;;;;6273507;22;20169;-63
2021/08/17 19:42:12;;;;;;;3.37;3.00;;;17.20;99.90;;;;;;6273709;22;20289;-61
2021/08/17 19:44:39;;;;;;;3.53;3.00;;;17.20;99.90;;;;;;6274217;22;20224;-62
2021/08/17 19:47:05;;;;;;;3.93;3.33;;;17.20;99.90;;;;;;6273896;22;20150;-62
2021/08/17 19:49:31;;;;;;;3.83;3.30;;;17.10;99.90;;;;;;6273330;22;20808;-62
2021/08/17 19:51:57;;;;;;;4.20;3.33;;;17.00;99.90;;;;;;6273874;22;20166;-62
2021/08/17 19:54:22;;;;;;;4.13;3.33;;;16.80;99.90;;;;;;6273891;22;20180;-61
2021/08/17 19:56:48;;;;;;;4.60;3.70;;;16.70;99.90;;;;;;6273862;22;20157;-63
2021/08/17 19:59:14;;;;;;;4.20;3.80;;;16.50;99.90;;;;;;6273576;22;20248;-63
2021/08/17 20:01:40;;;;;;;5.50;3.60;;;16.30;99.90;;;;;;6274000;22;20146;-63
2021/08/17 20:04:06;;;;;;;3.47;3.17;;;16.10;99.90;;;;;;6273682;22;20245;-63
2021/08/17 20:06:32;;;;;;;4.00;3.33;;;15.90;99.90;;;;;;6273591;22;20150;-64
2021/08/17 20:08:59;;;;;;;5.40;4.10;;;15.80;99.90;;;;;;6273337;22;20166;-63
2021/08/17 20:11:25;;;;;;;7.03;4.33;;;15.80;99.90;;;;;;6274225;22;20184;-62
2021/08/17 20:13:52;;;;;;;4.67;3.40;;;15.90;99.90;;;;;;6274098;22;20177;-62
2021/08/17 20:16:18;;;;;;;5.60;3.73;;;16.00;99.90;;;;;;6273775;22;20146;-62
2021/08/17 20:18:44;;;;;;;4.63;4.00;;;16.20;99.90;;;;;;6273380;22;20213;-63
2021/08/17 20:21:11;;;;;;;4.10;3.40;;;16.30;99.90;;;;;;6273925;22;20153;-62
2021/08/17 20:23:37;;;;;;;4.77;3.60;;;16.50;99.90;;;;;;6274102;22;20173;-62
2021/08/17 20:26:03;;;;;;;3.97;3.47;;;16.50;99.90;;;;;;6246996;22;20142;-62
2021/08/17 20:28:29;;;;;;;4.73;3.73;;;16.60;99.90;;;;;;6273400;22;20146;-60
2021/08/17 20:30:55;;;;;;;3.30;3.00;;;16.60;99.90;;;;;;6274025;22;20225;-62
2021/08/17 20:33:21;;;;;;;4.17;3.40;;;16.70;99.90;;;;;;6274130;22;20192;-63
2021/08/17 20:35:46;;;;;;;4.60;3.40;;;16.70;99.90;;;;;;6273555;22;20180;-62
2021/08/17 20:38:12;;;;;;;3.90;3.40;;;16.80;99.90;;;;;;6273894;22;20228;-62
2021/08/17 20:40:38;;;;;;;5.57;3.53;;;16.80;99.90;;;;;;6271270;22;20252;-63
2021/08/17 20:43:04;;;;;;;3.57;3.27;;;16.90;99.90;;;;;;6271989;22;20241;-62
2021/08/17 20:45:30;;;;;;;5.60;3.63;;;16.90;99.90;;;;;;6273380;22;20470;-61
2021/08/17 20:47:55;;;;;;;5.03;3.43;;;16.90;99.90;;;;;;6272073;22;20146;-62
2021/08/17 20:50:21;;;;;;;6.00;3.60;;;17.00;99.90;;;;;;6273493;22;20177;-63
2021/08/17 20:52:48;;;;;;;4.87;3.70;;;16.90;99.90;;;;;;6273303;22;20170;-63
2021/08/17 20:55:15;;;;;;;4.73;3.33;;;16.90;99.90;;;;;;6273692;22;20181;-62
2021/08/17 20:57:41;;;;;;;4.33;3.47;;;16.80;99.90;;;;;;6273734;22;20153;-62
2021/08/17 21:00:09;;;;;;;4.00;3.60;;;16.50;99.90;;;;;;6272995;22;20165;-63
2021/08/17 21:02:36;;;;;;;6.47;3.90;;;16.20;99.90;;;;;;6246693;22;20154;-61
2021/08/17 21:05:02;;;;;;;4.30;3.53;;;16.00;99.90;;;;;;6272102;22;20158;-62
2021/08/17 21:07:28;;;;;;;4.70;3.70;;;16.00;99.90;;;;;;6272939;22;20232;-62
2021/08/17 21:09:53;;;;;;;4.77;3.57;;;16.10;99.90;;;;;;6272080;22;20205;-63
2021/08/17 21:12:19;;;;;;;4.00;3.60;;;16.20;99.90;;;;;;6273041;22;20150;-62
2021/08/17 21:14:44;;;;;;;3.87;3.40;;;16.20;99.90;;;;;;6273006;22;20169;-63
2021/08/17 21:17:10;;;;;;;4.40;3.70;;;16.30;99.90;;;;;;6275324;22;20152;-62
2021/08/17 21:19:36;;;;;;;4.57;3.60;;;16.30;99.90;;;;;;6275576;22;20245;-63
2021/08/17 21:22:03;;;;;;;3.97;3.47;;;16.30;99.90;;;;;;6275677;22;20884;-63
2021/08/17 21:24:29;;;;;;;3.97;3.53;;;16.40;99.90;;;;;;6275464;22;20468;-61
2021/08/17 21:26:54;;;;;;;4.30;3.90;;;16.30;99.90;;;;;;6275593;22;20207;-62
2021/08/17 21:29:20;;;;;;;5.57;4.30;;;16.40;99.90;;;;;;6275155;22;20229;-63
2021/08/17 21:31:45;;;;;;;5.90;3.60;;;16.20;99.90;;;;;;6275602;22;20157;-62
2021/08/17 21:34:11;;;;;;;5.03;3.67;;;16.20;99.90;;;;;;6275925;22;20173;-63
2021/08/17 21:36:36;;;;;;;3.50;3.20;;;16.20;99.90;;;;;;6275620;22;20600;-61
2021/08/17 21:39:02;;;;;;;4.37;3.77;;;16.10;99.90;;;;;;6275171;22;20162;-63
2021/08/17 21:41:28;;;;;;;4.30;3.73;;;16.10;99.90;;;;;;6275839;22;20177;-62
2021/08/17 21:43:54;;;;;;;3.63;3.33;;;16.20;99.90;;;;;;6274654;22;20146;-61
2021/08/17 21:46:19;;;;;;;4.23;3.83;;;16.20;99.90;;;;;;6274444;22;20428;-62
2021/08/17 21:48:45;;;;;;;4.10;3.53;;;16.20;99.90;;;;;;6275082;22;20154;-63
2021/08/17 21:51:11;;;;;;;4.50;3.60;;;16.20;99.90;;;;;;6274999;22;20469;-62
2021/08/17 21:53:36;;;;;;;4.60;3.80;;;16.20;99.90;;;;;;6275153;22;20142;-63
2021/08/17 21:56:03;;;;;;;4.40;3.90;;;16.30;99.90;;;;;;6275092;22;20158;-62
2021/08/17 21:58:29;;;;;;;4.97;3.70;;;16.40;99.90;;;;;;6274706;22;20205;-61
2021/08/17 22:00:55;;;;;;;4.83;3.67;;;16.40;99.90;;;;;;6275124;22;20142;-61
2021/08/17 22:03:20;;;;;;;5.40;3.93;;;16.40;99.90;;;;;;6275067;22;20157;-63
2021/08/17 22:05:47;;;;;;;5.83;3.23;;;16.30;99.90;;;;;;6274270;22;20158;-63
2021/08/17 22:08:13;;;;;;;4.17;3.73;;;16.40;99.90;;;;;;6274217;22;20151;-62
2021/08/17 22:10:38;;;;;;;4.77;3.60;;;16.20;99.90;;;;;;6274979;22;20262;-63
2021/08/17 22:13:04;;;;;;;5.23;3.93;;;16.10;99.90;;;;;;6275420;22;20158;-63
2021/08/17 22:15:30;;;;;;;6.50;4.10;;;16.00;99.90;;;;;;6275312;22;20662;-61
2021/08/17 22:17:55;;;;;;;5.10;4.50;;;15.80;99.90;;;;;;6275095;22;20142;-61
2021/08/17 22:20:21;;;;;;;6.27;4.00;;;15.80;99.90;;;;;;6274698;22;20687;-61
2021/08/17 22:22:49;;;;;;;5.50;4.23;;;15.80;99.90;;;;;;6275059;22;20743;-62
2021/08/17 22:25:15;;;;;;;5.43;4.33;;;15.90;99.90;;;;;;6274889;22;20154;-62
2021/08/17 22:27:41;;;;;;;4.97;4.00;;;15.90;99.90;;;;;;6275071;22;20535;-62
2021/08/17 22:30:09;;;;;;;5.97;4.70;;;15.90;99.90;;;;;;6274604;22;20181;-62
2021/08/17 22:32:35;;;;;;;5.87;4.87;;;15.80;99.90;;;;;;6274942;22;20168;-63
2021/08/17 22:35:01;;;;;;;5.27;4.13;;;15.80;99.90;;;;;;6275176;22;20182;-63
2021/08/17 22:37:27;;;;;;;6.10;3.93;;;15.90;99.90;;;;;;6275251;22;20483;-62
2021/08/17 22:39:52;;;;;;;6.30;4.57;;;16.00;99.90;;;;;;6274410;22;20621;-64
2021/08/17 22:42:18;;;;;;;5.73;4.63;;;16.00;99.90;;;;;;6275129;22;20142;-63
2021/08/17 22:44:43;;;;;;;5.83;4.53;;;16.00;99.90;;;;;;6274886;22;20152;-62
2021/08/17 22:47:09;;;;;;;8.70;4.60;;;15.70;99.90;;;;;;6274889;22;20150;-62
2021/08/17 22:49:34;;;;;;;6.27;4.20;;;15.60;99.90;;;;;;6274354;22;20177;-63
2021/08/17 22:52:01;;;;;;;5.30;4.40;;;15.40;99.90;;;;;;6274691;22;20158;-62
2021/08/17 22:54:27;;;;;;;5.97;4.30;;;15.40;99.90;;;;;;6274572;22;20639;-63
2021/08/17 22:56:53;;;;;;;4.90;4.40;;;15.40;99.90;;;;;;6296629;22;20209;-68
2021/08/17 22:59:19;;;;;;;6.03;4.47;;;16.80;99.90;;;;;;6304883;22;20155;-68
2021/08/17 23:01:44;;;;;;;6.37;4.67;;;15.80;99.90;;;;;;6305436;22;20148;-69
2021/08/17 23:04:10;;;;;;;6.10;4.57;;;15.10;99.90;;;;;;6305248;22;20145;-68
2021/08/17 23:06:37;;;;;;;7.20;4.23;;;15.20;99.90;;;;;;6283020;22;20166;-68
2021/08/17 23:09:03;;;;;;;5.77;4.43;;;15.10;99.90;;;;;;6274368;22;20150;-69
2021/08/17 23:11:31;;;;;;;7.13;4.97;;;15.10;99.90;;;;;;6274273;22;20172;-68
2021/08/17 23:13:57;;;;;;;5.10;4.17;;;15.10;99.90;;;;;;6274402;22;20253;-69
2021/08/17 23:16:23;;;;;;;8.03;4.70;;;15.20;99.90;;;;;;6274266;22;20165;-68
2021/08/17 23:18:48;;;;;;;6.10;4.50;;;15.00;99.90;;;;;;6274066;22;20225;-69
2021/08/17 23:21:14;;;;;;;5.33;4.30;;;15.00;99.90;;;;;;6274370;22;20149;-67
2021/08/17 23:23:40;;;;;;;5.60;4.50;;;15.00;99.90;;;;;;6274390;22;20176;-67
2021/08/17 23:26:09;;;;;;;5.23;4.40;;;15.00;99.90;;;;;;6274376;22;20169;-68
2021/08/17 23:28:34;;;;;;;5.20;4.47;;;14.90;99.90;;;;;;6274282;22;20223;-68
2021/08/17 23:31:00;;;;;;;5.27;4.30;;;14.90;99.90;;;;;;6195529;22;20148;-69
2021/08/17 23:33:26;;;;;;;6.10;4.37;;;14.70;99.90;;;;;;6274665;22;20203;-68
2021/08/17 23:35:51;;;;;;;5.13;4.60;;;14.60;99.90;;;;;;6273946;22;20192;-69
2021/08/17 23:38:17;;;;;;;5.43;4.27;;;14.40;99.90;;;;;;6273633;22;20173;-67
2021/08/17 23:40:45;;;;;;;5.50;4.63;;;14.50;99.90;;;;;;6273888;22;20142;-69
2021/08/17 23:43:12;;;;;;;6.03;4.50;;;14.60;99.90;;;;;;6274072;22;20225;-68
2021/08/17 23:45:38;;;;;;;9.87;4.53;;;14.70;99.90;;;;;;6274100;22;20251;-68
2021/08/17 23:48:04;;;;;;;5.87;4.67;;;14.80;99.90;;;;;;6273156;22;20182;-68
2021/08/17 23:50:30;;;;;;;6.20;4.80;;;14.90;99.90;;;;;;6273962;22;20484;-69
2021/08/17 23:52:57;;;;;;;6.30;4.40;;;14.90;99.90;;;;;;6274115;22;20152;-68
2021/08/17 23:55:23;;;;;;;6.17;4.70;;;14.80;99.90;;;;;;6273948;22;20251;-68
2021/08/17 23:57:49;;;;;;;6.70;4.80;;;14.70;99.90;;;;;;6274149;22;20142;-68
